createdAt,value
2023-12-04T00:02:02.049Z,9.80
2023-12-04T00:04:29.054Z,9.20
2023-12-04T00:06:55.956Z,8.20
2023-12-04T00:09:25.044Z,9.00
2023-12-04T00:11:52.688Z,9.10
2023-12-04T00:14:19.536Z,9.60
2023-12-04T00:16:46.482Z,9.10
2023-12-04T00:19:13.479Z,9.50
2023-12-04T00:21:40.579Z,9.90
2023-12-04T00:24:07.566Z,8.50
2023-12-04T00:26:34.340Z,9.70
2023-12-04T00:29:02.098Z,8.60
2023-12-04T00:31:29.397Z,7.80
2023-12-04T00:33:56.687Z,8.40
2023-12-04T00:36:23.645Z,7.10
2023-12-04T00:38:50.451Z,6.80
2023-12-04T00:41:17.247Z,8.20
2023-12-04T00:43:44.060Z,8.40
2023-12-04T00:46:10.983Z,9.40
2023-12-04T00:48:37.934Z,8.10
2023-12-04T00:51:08.083Z,8.20
2023-12-04T00:53:34.898Z,8.20
2023-12-04T00:56:01.700Z,10.00
2023-12-04T00:58:28.467Z,8.30
2023-12-04T01:00:57.598Z,8.90
2023-12-04T01:03:26.926Z,7.50
2023-12-04T01:06:02.357Z,8.30
2023-12-04T01:08:29.650Z,6.60
2023-12-04T01:10:57.803Z,8.20
2023-12-04T01:13:24.645Z,7.50
2023-12-04T01:15:51.455Z,10.70
2023-12-04T01:18:18.992Z,7.70
2023-12-04T01:20:47.238Z,8.30
2023-12-04T01:23:14.018Z,9.10
2023-12-04T01:25:40.808Z,7.90
2023-12-04T01:28:07.630Z,7.70
2023-12-04T01:30:34.541Z,8.10
2023-12-04T01:33:01.586Z,7.30
2023-12-04T01:35:28.522Z,7.40
2023-12-04T01:37:55.326Z,8.00
2023-12-04T01:40:22.354Z,9.00
2023-12-04T01:42:49.219Z,8.00
2023-12-04T01:45:16.673Z,7.80
2023-12-04T01:47:45.417Z,6.90
2023-12-04T01:50:13.813Z,9.20
2023-12-04T01:52:41.101Z,8.10
2023-12-04T01:55:11.707Z,8.30
2023-12-04T01:57:38.748Z,7.80
2023-12-04T02:00:12.648Z,8.00
2023-12-04T02:02:41.415Z,7.60
2023-12-04T02:05:09.670Z,8.80
2023-12-04T02:07:37.487Z,7.90
2023-12-04T02:10:05.298Z,8.00
2023-12-04T02:12:32.502Z,7.90
2023-12-04T02:14:59.698Z,8.60
2023-12-04T02:17:27.029Z,8.50
2023-12-04T02:19:55.337Z,9.40
2023-12-04T02:22:22.150Z,7.90
2023-12-04T02:24:49.705Z,8.90
2023-12-04T02:27:28.844Z,6.90
2023-12-04T02:30:00.811Z,7.40
2023-12-04T02:32:32.046Z,8.90
2023-12-04T02:35:03.290Z,7.10
2023-12-04T02:37:30.815Z,7.20
2023-12-04T02:39:59.309Z,7.50
2023-12-04T02:42:26.427Z,7.70
2023-12-04T02:44:53.375Z,7.00
2023-12-04T02:47:20.262Z,7.30
2023-12-04T02:49:47.117Z,8.90
2023-12-04T02:52:13.919Z,7.70
2023-12-04T02:54:40.829Z,7.30
2023-12-04T02:57:08.286Z,7.20
2023-12-04T02:59:35.096Z,6.90
2023-12-04T03:02:02.198Z,8.20
2023-12-04T03:04:30.315Z,6.80
2023-12-04T03:06:59.136Z,7.70
2023-12-04T03:09:47.511Z,7.30
2023-12-04T03:12:12.773Z,7.20
2023-12-04T03:14:39.523Z,7.10
2023-12-04T03:17:06.352Z,6.70
2023-12-04T03:19:33.246Z,7.60
2023-12-04T03:22:01.637Z,7.30
2023-12-04T03:24:28.379Z,8.00
2023-12-04T03:26:55.170Z,7.60
2023-12-04T03:29:21.906Z,7.60
2023-12-04T03:31:48.710Z,6.60
2023-12-04T03:34:15.543Z,8.90
2023-12-04T03:36:42.659Z,8.30
2023-12-04T03:39:09.449Z,6.40
2023-12-04T03:41:36.344Z,7.70
2023-12-04T03:44:03.934Z,7.90
2023-12-04T03:46:33.521Z,7.40
2023-12-04T03:49:00.518Z,6.60
2023-12-04T03:51:27.410Z,6.90
2023-12-04T03:53:54.255Z,7.00
2023-12-04T03:56:21.067Z,6.50
2023-12-04T03:58:47.977Z,7.10
2023-12-04T04:01:17.477Z,8.60
2023-12-04T04:03:50.484Z,7.20
2023-12-04T04:06:17.752Z,7.60
2023-12-04T04:08:44.549Z,6.30
2023-12-04T04:11:12.343Z,7.10
2023-12-04T04:13:39.195Z,7.50
2023-12-04T04:16:07.176Z,7.00
2023-12-04T04:18:34.403Z,8.20
2023-12-04T04:21:01.400Z,7.90
2023-12-04T04:23:28.218Z,7.20
2023-12-04T04:25:55.013Z,7.30
2023-12-04T04:28:21.856Z,6.70
2023-12-04T04:30:48.809Z,7.30
2023-12-04T04:33:17.752Z,8.10
2023-12-04T04:35:44.523Z,7.60
2023-12-04T04:38:11.911Z,7.50
2023-12-04T04:40:42.666Z,7.50
2023-12-04T04:43:12.249Z,7.80
2023-12-04T04:45:39.464Z,8.00
2023-12-04T04:50:53.609Z,6.80
2023-12-04T04:53:22.788Z,7.40
2023-12-04T04:55:51.978Z,7.70
2023-12-04T04:58:21.086Z,11.80
2023-12-04T05:00:48.101Z,7.70
2023-12-04T05:03:15.151Z,7.00
2023-12-04T05:05:42.117Z,7.70
2023-12-04T05:08:08.920Z,8.90
2023-12-04T05:10:35.640Z,6.50
2023-12-04T05:13:02.505Z,7.00
2023-12-04T05:15:29.385Z,6.60
2023-12-04T05:18:00.701Z,8.40
2023-12-04T05:20:47.099Z,7.20
2023-12-04T05:23:15.159Z,7.40
2023-12-04T05:25:48.040Z,8.00
2023-12-04T05:28:17.418Z,7.40
2023-12-04T05:30:44.369Z,7.10
2023-12-04T05:33:13.178Z,7.50
2023-12-04T05:35:40.149Z,7.80
2023-12-04T05:38:08.357Z,7.00
2023-12-04T05:43:21.590Z,8.40
2023-12-04T05:45:52.854Z,7.80
2023-12-04T05:48:23.281Z,7.10
2023-12-04T05:50:52.569Z,6.40
2023-12-04T05:53:26.809Z,8.60
2023-12-04T05:55:53.812Z,7.80
2023-12-04T05:58:21.161Z,8.60
2023-12-04T06:00:48.154Z,8.10
2023-12-04T06:03:14.970Z,6.80
2023-12-04T06:05:41.825Z,6.10
2023-12-04T06:08:08.585Z,7.50
2023-12-04T06:10:41.078Z,8.90
2023-12-04T06:13:19.929Z,7.60
2023-12-04T06:15:46.798Z,5.30
2023-12-04T06:18:13.793Z,7.20
2023-12-04T06:20:43.824Z,9.00
2023-12-04T06:23:10.912Z,5.90
2023-12-04T06:25:38.865Z,7.00
2023-12-04T06:28:06.324Z,6.40
2023-12-04T06:30:33.752Z,5.70
2023-12-04T06:33:00.990Z,8.10
2023-12-04T06:35:28.221Z,5.80
2023-12-04T06:37:56.032Z,7.30
2023-12-04T06:40:23.245Z,7.10
2023-12-04T06:42:50.483Z,6.00
2023-12-04T06:45:18.535Z,6.60
2023-12-04T06:47:47.105Z,5.70
2023-12-04T06:50:13.961Z,8.40
2023-12-04T06:52:40.685Z,6.30
2023-12-04T06:55:08.796Z,6.20
2023-12-04T06:57:35.750Z,6.40
2023-12-04T07:00:03.706Z,7.30
2023-12-04T07:02:48.909Z,6.30
2023-12-04T07:05:20.466Z,6.20
2023-12-04T07:07:52.688Z,6.90
2023-12-04T07:10:19.671Z,7.20
2023-12-04T07:12:46.668Z,7.00
2023-12-04T07:15:13.662Z,5.30
2023-12-04T07:17:40.664Z,5.40
2023-12-04T07:20:08.196Z,5.40
2023-12-04T07:22:38.409Z,7.10
2023-12-04T07:25:07.664Z,5.70
2023-12-04T07:27:35.248Z,7.80
2023-12-04T07:30:06.083Z,6.50
2023-12-04T07:32:33.217Z,6.50
2023-12-04T07:35:24.364Z,6.90
2023-12-04T07:37:58.242Z,6.60
2023-12-04T07:40:25.093Z,6.20
2023-12-04T07:42:52.552Z,6.80
2023-12-04T07:45:19.424Z,7.30
2023-12-04T07:47:46.244Z,6.40
2023-12-04T07:50:13.157Z,5.70
2023-12-04T07:52:47.781Z,5.90
2023-12-04T07:55:14.799Z,7.40
2023-12-04T07:57:41.638Z,8.10
2023-12-04T08:00:09.129Z,6.90
2023-12-04T08:02:35.957Z,8.00
2023-12-04T08:05:03.202Z,6.20
2023-12-04T08:07:29.996Z,10.30
2023-12-04T08:10:04.795Z,6.30
2023-12-04T08:12:31.607Z,6.60
2023-12-04T08:15:00.782Z,4.90
2023-12-04T08:17:28.914Z,6.10
2023-12-04T08:19:55.897Z,6.10
2023-12-04T08:22:22.875Z,6.90
2023-12-04T08:24:49.705Z,5.70
2023-12-04T08:27:16.437Z,6.40
2023-12-04T08:29:43.217Z,7.50
2023-12-04T08:32:09.971Z,7.10
2023-12-04T08:34:37.461Z,5.10
2023-12-04T08:37:04.962Z,8.00
2023-12-04T08:39:32.010Z,5.50
2023-12-04T08:42:03.327Z,8.40
2023-12-04T08:44:32.172Z,8.50
2023-12-04T08:47:00.354Z,7.70
2023-12-04T08:49:35.735Z,7.40
2023-12-04T08:52:08.443Z,5.40
2023-12-04T08:54:35.539Z,6.10
2023-12-04T08:57:05.274Z,7.00
2023-12-04T08:59:36.813Z,5.80
2023-12-04T09:02:04.914Z,5.40
2023-12-04T09:04:44.938Z,5.60
2023-12-04T09:10:30.084Z,5.30
2023-12-04T09:21:03.627Z,5.90
2023-12-04T09:23:36.820Z,5.50
2023-12-04T09:26:03.953Z,5.80
2023-12-04T09:28:30.680Z,5.40
2023-12-04T09:30:57.890Z,6.40
2023-12-04T09:33:25.080Z,8.20
2023-12-04T09:35:51.883Z,5.90
2023-12-04T09:38:18.637Z,8.20
2023-12-04T09:40:45.735Z,5.50
2023-12-04T09:43:13.189Z,4.50
2023-12-04T09:45:41.320Z,5.30
2023-12-04T09:48:10.259Z,6.40
2023-12-04T09:50:38.418Z,7.50
2023-12-04T09:53:10.881Z,6.20
2023-12-04T09:55:37.708Z,5.50
2023-12-04T09:58:06.239Z,8.20
2023-12-04T10:00:33.491Z,5.70
2023-12-04T10:03:01.081Z,5.40
2023-12-04T10:05:27.792Z,5.30
2023-12-04T10:07:54.461Z,6.90
2023-12-04T10:10:21.152Z,6.10
2023-12-04T10:12:47.846Z,5.80
2023-12-04T10:15:14.855Z,5.60
2023-12-04T10:17:44.048Z,6.50
2023-12-04T10:20:20.404Z,8.10
2023-12-04T10:22:59.656Z,6.30
2023-12-04T10:25:30.110Z,4.90
2023-12-04T10:28:10.966Z,4.90
2023-12-04T10:30:38.124Z,6.10
2023-12-04T10:33:06.856Z,8.50
2023-12-04T10:35:38.573Z,6.20
2023-12-04T10:38:07.636Z,6.00
2023-12-04T10:40:37.233Z,6.20
2023-12-04T10:43:17.395Z,5.80
2023-12-04T10:45:46.770Z,5.90
2023-12-04T10:48:16.513Z,6.40
2023-12-04T10:50:48.794Z,7.60
2023-12-04T10:53:17.515Z,4.70
2023-12-04T10:55:46.130Z,5.40
2023-12-04T10:58:15.068Z,5.10
2023-12-04T11:00:52.196Z,5.60
2023-12-04T11:03:32.020Z,5.00
2023-12-04T11:06:06.290Z,5.60
2023-12-04T11:08:37.469Z,5.90
2023-12-04T11:11:12.166Z,5.90
2023-12-04T11:13:42.545Z,6.00
2023-12-04T11:16:28.939Z,6.40
2023-12-04T11:19:05.840Z,5.60
2023-12-04T11:21:33.615Z,5.30
2023-12-04T11:24:02.400Z,6.30
2023-12-04T11:26:30.325Z,6.10
2023-12-04T11:28:58.117Z,5.90
2023-12-04T11:31:25.244Z,8.10
2023-12-04T11:33:52.040Z,8.30
2023-12-04T11:36:19.203Z,5.20
2023-12-04T11:38:47.375Z,5.30
2023-12-04T11:41:25.825Z,4.80
2023-12-04T11:43:57.877Z,7.60
2023-12-04T11:46:28.066Z,7.00
2023-12-04T11:48:57.760Z,5.70
2023-12-04T11:51:39.736Z,5.30
2023-12-04T11:54:10.874Z,6.60
2023-12-04T11:56:37.585Z,5.90
2023-12-04T11:59:07.449Z,5.90
2023-12-04T12:01:37.803Z,6.30
2023-12-04T12:04:08.160Z,5.50
2023-12-04T12:06:35.963Z,5.30
2023-12-04T12:09:03.409Z,6.00
2023-12-04T12:11:30.600Z,5.80
2023-12-04T12:13:57.249Z,5.70
2023-12-04T12:16:23.896Z,6.40
2023-12-04T12:18:51.393Z,5.50
2023-12-04T12:21:18.172Z,5.40
2023-12-04T12:23:45.024Z,5.30
2023-12-04T12:26:11.784Z,6.10
2023-12-04T12:28:38.518Z,5.50
2023-12-04T12:31:06.013Z,5.80
2023-12-04T12:33:32.931Z,5.20
2023-12-04T12:36:03.736Z,7.10
2023-12-04T12:38:36.386Z,6.10
2023-12-04T12:41:08.633Z,6.20
2023-12-04T12:43:35.720Z,8.50
2023-12-04T12:46:06.114Z,5.00
2023-12-04T12:48:33.423Z,5.20
2023-12-04T12:51:03.823Z,5.60
2023-12-04T12:53:34.314Z,4.60
2023-12-04T12:56:01.886Z,6.20
2023-12-04T12:58:29.015Z,6.80
2023-12-04T13:00:56.962Z,6.40
2023-12-04T13:03:24.638Z,6.90
2023-12-04T13:05:51.821Z,6.70
2023-12-04T13:08:18.929Z,5.30
2023-12-04T13:10:46.145Z,5.80
2023-12-04T13:13:14.678Z,6.00
2023-12-04T13:15:42.619Z,6.20
2023-12-04T13:18:10.280Z,5.20
2023-12-04T13:20:37.004Z,5.10
2023-12-04T13:23:04.019Z,4.90
2023-12-04T13:25:31.324Z,5.80
2023-12-04T13:27:58.249Z,5.30
2023-12-04T13:30:26.261Z,5.40
2023-12-04T13:32:53.179Z,5.70
2023-12-04T13:35:20.245Z,7.60
2023-12-04T13:37:54.875Z,6.80
2023-12-04T13:40:22.047Z,5.10
2023-12-04T13:43:07.671Z,9.30
2023-12-04T13:45:35.869Z,5.20
2023-12-04T13:48:02.843Z,4.50
2023-12-04T13:50:29.562Z,5.60
2023-12-04T13:52:57.569Z,5.30
2023-12-04T13:55:50.281Z,4.40
2023-12-04T13:58:52.300Z,5.90
2023-12-04T14:01:23.576Z,5.60
2023-12-04T14:06:21.067Z,4.40
2023-12-04T14:08:48.398Z,7.10
2023-12-04T14:11:15.302Z,7.20
2023-12-04T14:13:42.290Z,6.90
2023-12-04T14:16:10.862Z,4.70
2023-12-04T14:18:38.046Z,7.00
2023-12-04T14:21:05.405Z,5.80
2023-12-04T14:23:32.143Z,5.30
2023-12-04T14:25:59.696Z,5.80
2023-12-04T14:28:29.512Z,4.90
2023-12-04T14:30:59.893Z,5.20
2023-12-04T14:33:26.763Z,6.10
2023-12-04T14:35:53.825Z,7.80
2023-12-04T14:38:20.778Z,5.80
2023-12-04T14:40:47.518Z,4.00
2023-12-04T14:43:14.328Z,5.60
2023-12-04T14:45:41.078Z,6.00
2023-12-04T14:48:07.862Z,5.70
2023-12-04T14:50:39.777Z,6.30
2023-12-04T14:53:36.090Z,6.70
2023-12-04T14:56:21.788Z,5.40
2023-12-04T14:59:20.345Z,5.00
2023-12-04T15:02:06.500Z,5.20
2023-12-04T15:04:53.693Z,5.90
2023-12-04T15:07:21.261Z,5.00
2023-12-04T15:10:17.490Z,4.40
2023-12-04T15:13:02.869Z,6.50
2023-12-04T15:15:49.869Z,6.60
2023-12-04T15:18:35.495Z,10.00
2023-12-04T15:21:03.430Z,6.90
2023-12-04T15:23:31.002Z,6.20
2023-12-04T15:25:57.653Z,8.50
2023-12-04T15:28:24.339Z,7.40
2023-12-04T15:30:51.372Z,7.20
2023-12-04T15:33:20.959Z,7.20
2023-12-04T15:35:47.975Z,4.90
2023-12-04T15:38:14.718Z,6.40
2023-12-04T15:40:41.719Z,5.70
2023-12-04T15:43:08.481Z,4.60
2023-12-04T15:45:35.174Z,6.30
2023-12-04T15:48:01.975Z,9.20
2023-12-04T15:50:29.125Z,6.00
2023-12-04T15:52:56.984Z,7.90
2023-12-04T15:55:26.706Z,5.60
2023-12-04T15:57:57.653Z,7.70
2023-12-04T16:00:27.917Z,6.80
2023-12-04T16:02:54.603Z,6.40
2023-12-04T16:05:21.463Z,5.40
2023-12-04T16:07:49.092Z,8.20
2023-12-04T16:10:17.089Z,8.00
2023-12-04T16:12:44.036Z,8.30
2023-12-04T16:15:11.511Z,7.80
2023-12-04T16:21:46.351Z,5.90
2023-12-04T16:24:26.525Z,5.50
2023-12-04T16:26:56.671Z,6.90
2023-12-04T16:29:28.428Z,7.10
2023-12-04T16:31:56.123Z,6.00
2023-12-04T18:32:23.508Z,8.60
2023-12-04T18:34:54.665Z,9.50
2023-12-04T18:37:28.070Z,7.20
2023-12-04T18:39:59.255Z,8.00
2023-12-04T18:42:26.692Z,7.20
2023-12-04T18:44:53.957Z,6.20
2023-12-04T18:47:23.422Z,9.40
2023-12-04T18:49:51.559Z,5.80
2023-12-04T18:52:19.393Z,6.40
2023-12-04T18:54:46.754Z,7.50
2023-12-04T18:57:13.624Z,5.30
2023-12-04T18:59:40.350Z,6.00
2023-12-04T19:02:07.127Z,7.30
2023-12-04T19:04:35.114Z,5.10
2023-12-04T19:07:02.495Z,7.00
2023-12-04T19:09:30.280Z,5.50
2023-12-04T19:11:57.078Z,5.60
2023-12-04T19:14:23.847Z,4.60
2023-12-04T19:16:50.925Z,4.10
2023-12-04T19:19:17.748Z,4.00
2023-12-04T19:21:44.570Z,6.90
2023-12-04T19:24:11.341Z,6.00
2023-12-04T19:26:40.092Z,5.70
2023-12-04T19:29:07.012Z,6.00
2023-12-04T19:31:34.356Z,6.40
2023-12-04T19:34:01.187Z,4.70
2023-12-04T19:36:28.032Z,6.70
2023-12-04T19:38:55.519Z,6.20
2023-12-04T19:41:31.867Z,4.50
2023-12-04T19:43:59.249Z,5.80
2023-12-04T19:46:30.864Z,4.70
2023-12-04T19:48:57.815Z,4.10
2023-12-04T19:51:24.833Z,6.50
2023-12-04T19:53:51.834Z,5.20
2023-12-04T19:56:20.480Z,4.40
2023-12-04T19:58:47.790Z,5.30
2023-12-04T20:01:43.291Z,4.80
2023-12-04T20:04:10.646Z,5.10
2023-12-04T20:06:39.571Z,5.00
2023-12-04T20:09:08.696Z,7.60
2023-12-04T20:11:36.028Z,4.10
2023-12-04T20:14:04.019Z,6.40
2023-12-04T20:16:31.324Z,4.60
2023-12-04T20:19:09.650Z,4.50
2023-12-04T20:21:42.933Z,5.60
2023-12-04T20:24:10.105Z,4.20
2023-12-04T20:26:48.409Z,4.80
2023-12-04T20:29:18.953Z,5.40
2023-12-04T20:31:47.583Z,4.80
2023-12-04T20:34:14.392Z,5.30
2023-12-04T20:36:41.212Z,5.40
2023-12-04T20:39:08.742Z,3.60
2023-12-04T20:41:36.151Z,4.90
2023-12-04T20:44:05.729Z,3.40
2023-12-04T20:46:33.079Z,3.70
2023-12-04T20:49:00.766Z,5.20
2023-12-04T20:51:34.635Z,6.70
2023-12-04T20:54:06.387Z,4.70
2023-12-04T20:56:44.929Z,3.50
2023-12-04T20:59:14.953Z,2.60
2023-12-04T21:01:45.869Z,3.20
2023-12-04T21:04:13.093Z,2.70
2023-12-04T21:06:39.968Z,4.00
2023-12-04T21:09:14.872Z,4.30
2023-12-04T21:11:41.753Z,5.10
2023-12-04T21:14:09.622Z,2.50
2023-12-04T21:16:48.060Z,4.10
2023-12-04T21:19:21.973Z,2.50
2023-12-04T21:21:49.300Z,3.50
2023-12-04T21:24:19.038Z,2.80
2023-12-04T21:26:47.431Z,3.80
2023-12-04T21:29:14.357Z,3.10
2023-12-04T21:31:41.185Z,3.80
2023-12-04T21:34:08.776Z,3.60
2023-12-04T21:36:36.189Z,2.60
2023-12-04T21:39:03.899Z,3.50
2023-12-04T21:41:33.189Z,2.30
2023-12-04T21:44:00.126Z,2.90
2023-12-04T21:46:26.933Z,2.60
2023-12-04T21:48:53.825Z,4.00
2023-12-04T21:51:20.745Z,2.70
2023-12-04T21:53:48.252Z,1.90
2023-12-04T21:56:15.142Z,3.50
2023-12-04T21:58:41.948Z,5.10
2023-12-04T22:01:08.842Z,2.90
2023-12-04T22:03:36.739Z,3.70
2023-12-04T22:08:31.499Z,4.00
2023-12-04T22:11:15.361Z,3.80
2023-12-04T22:16:31.586Z,2.60
2023-12-04T22:18:58.483Z,2.40
2023-12-04T22:21:28.420Z,3.00
2023-12-04T22:24:11.250Z,3.20
2023-12-04T22:27:46.808Z,3.20
2023-12-04T22:30:31.904Z,2.10
2023-12-04T22:33:56.412Z,3.90
2023-12-04T22:36:27.816Z,4.10
2023-12-04T22:42:46.607Z,3.90
2023-12-04T22:45:14.757Z,5.20
2023-12-04T22:47:42.682Z,3.30
2023-12-04T22:50:12.284Z,2.90
2023-12-04T22:52:39.362Z,3.50
2023-12-04T22:55:06.822Z,3.50
2023-12-04T22:57:33.875Z,5.50
2023-12-04T23:00:12.144Z,3.90
2023-12-04T23:02:44.131Z,4.50
2023-12-04T23:05:23.337Z,3.70
2023-12-04T23:07:56.836Z,4.20
2023-12-04T23:10:56.312Z,2.70
2023-12-04T23:13:21.231Z,5.10
2023-12-04T23:16:01.022Z,5.00
2023-12-04T23:23:58.742Z,4.20
2023-12-04T23:27:05.543Z,3.90
2023-12-04T23:30:03.459Z,6.20
2023-12-04T23:32:39.470Z,3.50
2023-12-04T23:35:11.420Z,3.90
2023-12-04T23:37:38.361Z,5.90
